createdAt,value
2017-05-18T00:00:30.023Z,100497.67
2017-05-18T00:02:57.566Z,100494.99
2017-05-18T00:05:25.116Z,100499.40
2017-05-18T00:07:52.688Z,100497.85
2017-05-18T00:10:20.199Z,100497.16
2017-05-18T00:12:47.769Z,100498.98
2017-05-18T00:15:15.284Z,100493.95
2017-05-18T00:17:43.001Z,100488.28
2017-05-18T00:20:10.500Z,100488.66
2017-05-18T00:22:38.009Z,100489.30
2017-05-18T00:25:05.604Z,100479.25
2017-05-18T00:27:33.236Z,100483.32
2017-05-18T00:30:00.944Z,100475.62
2017-05-18T00:32:28.476Z,100473.42
2017-05-18T00:34:56.005Z,100476.38
2017-05-18T00:37:23.568Z,100475.85
2017-05-18T00:39:51.086Z,100474.78
2017-05-18T00:42:18.785Z,100470.58
2017-05-18T00:44:46.299Z,100468.96
2017-05-18T00:47:13.820Z,100470.09
2017-05-18T00:49:41.373Z,100464.07
2017-05-18T00:52:08.914Z,100467.18
2017-05-18T00:54:36.471Z,100465.98
2017-05-18T00:57:03.975Z,100463.61
2017-05-18T00:59:31.534Z,100466.17
2017-05-18T01:01:59.051Z,100461.81
2017-05-18T01:04:26.720Z,100464.03
2017-05-18T01:06:54.240Z,100465.09
2017-05-18T01:09:21.768Z,100474.70
2017-05-18T01:11:49.348Z,100471.16
2017-05-18T01:14:16.938Z,100473.11
2017-05-18T01:16:44.887Z,100476.92
2017-05-18T01:19:12.504Z,100478.51
2017-05-18T01:21:40.022Z,100475.60
2017-05-18T01:24:07.738Z,100485.46
2017-05-18T01:26:35.264Z,100488.20
2017-05-18T01:29:02.781Z,100500.85
2017-05-18T01:31:30.555Z,100496.48
2017-05-18T01:33:58.117Z,100501.16
2017-05-18T01:36:25.619Z,100494.39
2017-05-18T01:38:53.173Z,100501.63
2017-05-18T01:41:20.769Z,100501.07
2017-05-18T01:43:48.495Z,100496.66
2017-05-18T01:46:15.998Z,100503.88
2017-05-18T01:48:43.516Z,100504.87
2017-05-18T01:51:11.071Z,100506.96
2017-05-18T01:53:38.757Z,100509.48
2017-05-18T01:56:06.327Z,100513.80
2017-05-18T01:58:33.934Z,100517.36
2017-05-18T02:01:01.476Z,100528.37
2017-05-18T02:03:28.988Z,100535.79
2017-05-18T02:05:56.544Z,100532.39
2017-05-18T02:08:24.047Z,100520.88
2017-05-18T02:10:51.641Z,100527.58
2017-05-18T02:13:19.193Z,100532.87
2017-05-18T02:15:46.732Z,100538.66
2017-05-18T02:18:14.258Z,100541.27
2017-05-18T02:20:41.831Z,100534.17
2017-05-18T02:23:09.360Z,100531.96
2017-05-18T02:25:36.877Z,100528.20
2017-05-18T02:28:04.457Z,100526.59
2017-05-18T02:30:32.000Z,100533.41
2017-05-18T02:32:59.588Z,100528.57
2017-05-18T02:35:27.105Z,100525.24
2017-05-18T02:37:54.649Z,100519.55
2017-05-18T02:40:22.171Z,100524.14
2017-05-18T02:42:49.717Z,100530.56
2017-05-18T02:45:17.239Z,100532.34
2017-05-18T02:47:44.785Z,100533.68
2017-05-18T02:50:12.298Z,100536.09
2017-05-18T02:52:40.024Z,100543.82
2017-05-18T02:55:07.595Z,100542.27
2017-05-18T02:57:35.403Z,100548.03
2017-05-18T03:00:02.980Z,100550.31
2017-05-18T03:02:30.532Z,100547.55
2017-05-18T03:04:58.075Z,100542.84
2017-05-18T03:07:25.632Z,100550.00
2017-05-18T03:09:53.492Z,100552.91
2017-05-18T03:12:21.048Z,100544.79
2017-05-18T03:14:48.572Z,100548.41
2017-05-18T03:17:16.162Z,100546.59
2017-05-18T03:19:43.682Z,100554.94
2017-05-18T03:22:11.200Z,100557.78
2017-05-18T03:24:39.071Z,100566.68
2017-05-18T03:27:06.595Z,100561.44
2017-05-18T03:29:34.104Z,100564.94
2017-05-18T03:32:01.666Z,100567.95
2017-05-18T03:34:29.200Z,100566.50
2017-05-18T03:36:56.747Z,100562.27
2017-05-18T03:39:24.277Z,100563.91
2017-05-18T03:41:51.823Z,100561.72
2017-05-18T03:44:19.369Z,100562.88
2017-05-18T03:46:46.915Z,100557.27
2017-05-18T03:49:14.434Z,100552.69
2017-05-18T03:51:42.263Z,100560.41
2017-05-18T03:54:09.791Z,100552.59
2017-05-18T03:56:37.305Z,100550.36
2017-05-18T03:59:04.872Z,100539.44
2017-05-18T04:01:32.428Z,100541.77
2017-05-18T04:04:00.028Z,100542.61
2017-05-18T04:06:27.605Z,100546.48
2017-05-18T04:08:55.548Z,100545.97
2017-05-18T04:11:23.067Z,100545.52
2017-05-18T04:13:50.583Z,100542.37
2017-05-18T04:16:18.137Z,100540.25
2017-05-18T04:18:45.660Z,100539.64
2017-05-18T04:21:13.225Z,100536.83
2017-05-18T04:23:40.752Z,100543.71
2017-05-18T04:26:08.291Z,100549.75
2017-05-18T04:28:35.825Z,100556.72
2017-05-18T04:31:03.387Z,100554.79
2017-05-18T04:33:30.896Z,100562.19
2017-05-18T04:35:58.419Z,100557.23
2017-05-18T04:38:25.964Z,100550.81
2017-05-18T04:40:54.012Z,100552.93
2017-05-18T04:43:21.576Z,100552.66
2017-05-18T04:45:49.116Z,100554.50
2017-05-18T04:48:16.704Z,100554.77
2017-05-18T04:50:44.256Z,100555.48
2017-05-18T04:53:11.824Z,100548.77
2017-05-18T04:55:39.375Z,100559.78
2017-05-18T04:58:07.170Z,100565.64
2017-05-18T05:00:34.738Z,100567.34
2017-05-18T05:03:02.218Z,100567.31
2017-05-18T05:05:29.773Z,100571.47
2017-05-18T05:07:57.284Z,100577.44
2017-05-18T05:10:24.979Z,100587.29
2017-05-18T05:12:52.507Z,100596.09
2017-05-18T05:15:20.102Z,100591.48
2017-05-18T05:17:47.763Z,100592.46
2017-05-18T05:20:15.379Z,100576.80
2017-05-18T05:22:42.910Z,100576.06
2017-05-18T05:25:10.510Z,100585.33
2017-05-18T05:27:39.694Z,100590.97
2017-05-18T05:30:07.198Z,100601.23
2017-05-18T05:32:34.767Z,100592.16
2017-05-18T05:35:02.283Z,100597.92
2017-05-18T05:37:38.177Z,100594.62
2017-05-18T05:40:06.780Z,100598.20
2017-05-18T05:42:34.619Z,100612.86
2017-05-18T05:45:02.242Z,100623.70
2017-05-18T05:47:29.826Z,100620.59
2017-05-18T05:49:57.358Z,100634.00
2017-05-18T05:52:25.829Z,100645.17
2017-05-18T05:54:53.476Z,100648.77
2017-05-18T05:57:20.983Z,100649.70
2017-05-18T05:59:53.266Z,100652.66
2017-05-18T06:02:20.817Z,100658.43
2017-05-18T06:04:48.400Z,100670.78
2017-05-18T06:07:16.917Z,100664.76
2017-05-18T06:09:44.475Z,100661.30
2017-05-18T06:12:11.990Z,100653.34
2017-05-18T06:14:39.587Z,100662.95
2017-05-18T06:17:07.134Z,100668.33
2017-05-18T06:19:34.688Z,100676.81
2017-05-18T06:22:02.298Z,100678.44
2017-05-18T06:24:29.875Z,100675.95
2017-05-18T06:26:57.453Z,100677.66
2017-05-18T06:29:25.053Z,100673.49
2017-05-18T06:31:52.599Z,100678.81
2017-05-18T06:34:20.164Z,100672.22
2017-05-18T06:36:47.688Z,100666.12
2017-05-18T06:39:15.273Z,100674.36
2017-05-18T06:41:42.832Z,100674.91
2017-05-18T06:44:10.444Z,100693.92
2017-05-18T06:46:38.012Z,100698.70
2017-05-18T06:49:05.540Z,100695.13
2017-05-18T06:51:33.084Z,100702.45
2017-05-18T06:54:00.600Z,100699.30
2017-05-18T06:56:28.178Z,100703.12
2017-05-18T06:58:55.694Z,100730.16
2017-05-18T07:01:23.275Z,100719.31
2017-05-18T07:03:50.824Z,100715.30
2017-05-18T07:06:18.362Z,100703.15
2017-05-18T07:08:46.317Z,100706.12
2017-05-18T07:11:13.827Z,100702.41
2017-05-18T07:13:41.333Z,100707.58
2017-05-18T07:16:09.232Z,100699.83
2017-05-18T07:18:36.748Z,100697.34
2017-05-18T07:21:04.262Z,100706.47
2017-05-18T07:23:31.806Z,100717.50
2017-05-18T07:25:59.332Z,100713.94
2017-05-18T07:28:27.161Z,100707.95
2017-05-18T07:30:55.287Z,100699.94
2017-05-18T07:33:22.810Z,100699.48
2017-05-18T07:35:50.370Z,100705.73
2017-05-18T07:38:17.887Z,100708.55
2017-05-18T07:40:45.479Z,100711.16
2017-05-18T07:43:13.119Z,100713.30
2017-05-18T07:45:40.680Z,100715.95
2017-05-18T07:48:08.312Z,100710.55
2017-05-18T07:50:35.861Z,100709.05
2017-05-18T07:53:03.411Z,100704.06
2017-05-18T07:55:31.259Z,100701.02
2017-05-18T07:57:58.764Z,100705.30
2017-05-18T08:00:26.296Z,100713.84
2017-05-18T08:02:53.932Z,100708.52
2017-05-18T08:05:21.464Z,100710.38
2017-05-18T08:07:49.046Z,100708.66
2017-05-18T08:10:16.922Z,100709.42
2017-05-18T08:12:44.453Z,100710.57
2017-05-18T08:15:11.959Z,100708.46
2017-05-18T08:17:39.513Z,100711.80
2017-05-18T08:20:07.027Z,100710.63
2017-05-18T08:22:34.568Z,100705.27
2017-05-18T08:25:02.088Z,100710.78
2017-05-18T08:27:29.932Z,100714.09
2017-05-18T08:29:57.456Z,100718.17
2017-05-18T08:32:25.007Z,100715.37
2017-05-18T08:34:52.595Z,100721.72
2017-05-18T08:37:20.223Z,100713.11
2017-05-18T08:39:47.744Z,100718.30
2017-05-18T08:42:15.288Z,100726.88
2017-05-18T08:44:42.905Z,100725.22
2017-05-18T08:47:10.474Z,100724.76
2017-05-18T08:49:38.168Z,100724.19
2017-05-18T08:52:05.683Z,100731.00
2017-05-18T08:54:33.250Z,100727.23
2017-05-18T08:57:00.903Z,100723.11
2017-05-18T08:59:28.441Z,100719.59
2017-05-18T09:01:56.009Z,100718.75
2017-05-18T09:04:23.541Z,100712.06
2017-05-18T09:06:51.080Z,100714.63
2017-05-18T09:09:18.628Z,100715.20
2017-05-18T09:11:46.495Z,100714.56
2017-05-18T09:14:14.010Z,100713.05
2017-05-18T09:16:41.544Z,100719.16
2017-05-18T09:19:09.164Z,100712.23
2017-05-18T09:21:36.781Z,100706.48
2017-05-18T09:24:04.423Z,100699.72
2017-05-18T09:26:31.944Z,100702.78
2017-05-18T09:28:59.491Z,100706.19
2017-05-18T09:31:27.007Z,100702.43
2017-05-18T09:33:54.565Z,100707.95
2017-05-18T09:36:22.105Z,100698.01
2017-05-18T09:38:49.699Z,100690.08
2017-05-18T09:41:17.231Z,100685.42
2017-05-18T09:43:44.776Z,100690.74
2017-05-18T09:46:12.325Z,100689.27
2017-05-18T09:48:39.880Z,100690.20
2017-05-18T09:51:07.439Z,100685.78
2017-05-18T09:53:35.034Z,100690.64
2017-05-18T09:56:02.584Z,100693.31
2017-05-18T09:58:30.131Z,100685.28
2017-05-18T10:00:57.671Z,100691.53
2017-05-18T10:03:25.598Z,100690.97
2017-05-18T10:05:53.118Z,100694.66
2017-05-18T10:08:20.683Z,100700.00
2017-05-18T10:10:49.143Z,100694.37
2017-05-18T10:13:16.697Z,100690.88
2017-05-18T10:15:44.519Z,100701.78
2017-05-18T10:18:12.043Z,100701.41
2017-05-18T10:20:39.569Z,100709.50
2017-05-18T10:23:07.152Z,100717.47
2017-05-18T10:25:34.724Z,100716.81
2017-05-18T10:28:02.341Z,100716.64
2017-05-18T10:30:29.832Z,100724.73
2017-05-18T10:32:57.378Z,100726.91
2017-05-18T10:35:24.899Z,100728.78
2017-05-18T10:37:52.450Z,100727.25
2017-05-18T10:40:19.988Z,100733.59
2017-05-18T10:42:47.608Z,100724.87
2017-05-18T10:45:15.132Z,100734.86
2017-05-18T10:47:42.668Z,100746.61
2017-05-18T10:50:10.250Z,100747.19
2017-05-18T10:52:37.791Z,100747.87
2017-05-18T10:55:05.376Z,100734.53
2017-05-18T10:57:32.917Z,100731.59
2017-05-18T11:00:00.755Z,100728.21
2017-05-18T11:02:28.268Z,100730.53
2017-05-18T11:04:55.781Z,100745.98
2017-05-18T11:07:23.314Z,100752.78
2017-05-18T11:09:50.874Z,100752.53
2017-05-18T11:12:18.416Z,100758.75
2017-05-18T11:14:45.939Z,100753.43
2017-05-18T11:17:13.538Z,100743.56
2017-05-18T11:19:41.112Z,100750.99
2017-05-18T11:22:08.972Z,100744.14
2017-05-18T11:24:36.495Z,100760.95
2017-05-18T11:27:04.018Z,100771.77
2017-05-18T11:29:31.563Z,100775.33
2017-05-18T11:31:59.112Z,100757.16
2017-05-18T11:34:26.696Z,100756.50
2017-05-18T11:36:54.281Z,100756.03
2017-05-18T11:39:22.101Z,100756.45
2017-05-18T11:41:49.630Z,100756.91
2017-05-18T11:44:17.144Z,100742.89
2017-05-18T11:46:44.696Z,100744.24
2017-05-18T11:49:12.303Z,100741.78
2017-05-18T11:51:39.925Z,100746.48
2017-05-18T11:54:07.828Z,100743.83
2017-05-18T11:56:35.387Z,100754.78
2017-05-18T11:59:02.913Z,100775.38
2017-05-18T12:01:30.793Z,100777.91
2017-05-18T12:03:58.349Z,100774.77
2017-05-18T12:06:25.903Z,100779.53
2017-05-18T12:08:53.475Z,100778.55
2017-05-18T12:11:21.016Z,100780.31
2017-05-18T12:13:48.928Z,100777.72
2017-05-18T12:16:16.459Z,100779.89
2017-05-18T12:18:43.986Z,100777.97
2017-05-18T12:21:11.680Z,100774.16
2017-05-18T12:23:39.201Z,100776.26
2017-05-18T12:26:06.771Z,100778.22
2017-05-18T12:28:34.318Z,100787.21
2017-05-18T12:31:01.910Z,100787.12
2017-05-18T12:33:29.458Z,100788.90
2017-05-18T12:35:57.003Z,100797.41
2017-05-18T12:38:24.889Z,100784.77
2017-05-18T12:40:52.456Z,100780.11
2017-05-18T12:43:20.093Z,100768.25
2017-05-18T12:45:47.668Z,100758.44
2017-05-18T12:48:15.225Z,100745.81
2017-05-18T12:50:42.870Z,100735.97
2017-05-18T12:53:10.515Z,100729.44
2017-05-18T12:55:38.135Z,100740.53
2017-05-18T12:58:05.716Z,100751.41
2017-05-18T13:00:33.275Z,100753.06
2017-05-18T13:03:00.877Z,100749.09
2017-05-18T13:05:28.478Z,100750.98
2017-05-18T13:07:56.090Z,100745.00
2017-05-18T13:10:23.627Z,100737.48
2017-05-18T13:12:51.230Z,100731.34
2017-05-18T13:15:18.783Z,100715.18
2017-05-18T13:17:46.305Z,100706.83
2017-05-18T13:20:13.977Z,100705.09
2017-05-18T13:22:41.544Z,100710.34
2017-05-18T13:25:09.470Z,100708.95
2017-05-18T13:27:36.991Z,100711.75
2017-05-18T13:30:04.510Z,100698.13
2017-05-18T13:32:32.433Z,100694.64
2017-05-18T13:34:59.961Z,100683.29
2017-05-18T13:37:27.495Z,100687.67
2017-05-18T13:39:55.056Z,100682.38
2017-05-18T13:42:22.608Z,100680.11
2017-05-18T13:44:50.165Z,100686.98
2017-05-18T13:47:17.686Z,100679.38
2017-05-18T13:49:45.579Z,100669.16
2017-05-18T13:52:13.141Z,100672.05
2017-05-18T13:54:40.683Z,100666.42
2017-05-18T13:57:08.235Z,100666.72
2017-05-18T13:59:35.761Z,100661.09
2017-05-18T14:02:03.605Z,100655.47
2017-05-18T14:04:31.225Z,100652.92
2017-05-18T14:06:58.768Z,100660.59
2017-05-18T14:09:26.315Z,100662.91
2017-05-18T14:11:53.854Z,100668.43
2017-05-18T14:14:21.444Z,100675.13
2017-05-18T14:16:48.979Z,100676.55
2017-05-18T14:19:16.528Z,100673.98
2017-05-18T14:21:44.129Z,100677.45
2017-05-18T14:24:11.724Z,100681.67
2017-05-18T14:26:39.244Z,100688.11
2017-05-18T14:29:06.813Z,100685.44
2017-05-18T14:31:34.353Z,100689.88
2017-05-18T14:34:02.197Z,100690.45
2017-05-18T14:36:29.722Z,100685.44
2017-05-18T14:38:57.240Z,100691.06
2017-05-18T14:41:24.809Z,100689.19
2017-05-18T14:43:52.332Z,100684.64
2017-05-18T14:46:19.896Z,100685.94
2017-05-18T14:48:47.414Z,100680.90
2017-05-18T14:51:14.958Z,100675.13
2017-05-18T14:53:42.490Z,100669.61
2017-05-18T14:56:10.404Z,100665.42
2017-05-18T14:58:38.009Z,100662.40
2017-05-18T15:01:05.554Z,100658.09
2017-05-18T15:03:33.129Z,100660.36
2017-05-18T15:06:00.664Z,100664.00
2017-05-18T15:08:28.519Z,100662.24
2017-05-18T15:10:56.057Z,100668.34
2017-05-18T15:13:23.583Z,100658.23
2017-05-18T15:15:51.467Z,100649.45
2017-05-18T15:18:18.997Z,100647.36
2017-05-18T15:20:46.543Z,100643.52
2017-05-18T15:23:14.104Z,100635.19
2017-05-18T15:25:41.637Z,100635.77
2017-05-18T15:28:09.231Z,100638.54
2017-05-18T15:30:36.785Z,100642.95
2017-05-18T15:33:04.387Z,100631.80
2017-05-18T15:35:31.919Z,100631.98
2017-05-18T15:37:59.445Z,100630.84
2017-05-18T15:40:27.384Z,100636.31
2017-05-18T15:42:54.916Z,100641.83
2017-05-18T15:45:22.460Z,100631.66
2017-05-18T15:47:50.008Z,100640.22
2017-05-18T15:50:17.582Z,100638.52
2017-05-18T15:52:45.158Z,100637.75
2017-05-18T15:55:12.731Z,100633.05
2017-05-18T15:57:40.264Z,100634.66
2017-05-18T16:00:08.326Z,100634.35
2017-05-18T16:02:35.880Z,100628.70
2017-05-18T16:05:03.404Z,100627.73
2017-05-18T16:07:30.954Z,100621.01
2017-05-18T16:09:58.551Z,100621.02
2017-05-18T16:12:26.093Z,100623.70
2017-05-18T16:14:53.627Z,100616.74
2017-05-18T16:17:21.203Z,100609.33
2017-05-18T16:19:48.735Z,100602.11
2017-05-18T16:22:16.264Z,100606.52
2017-05-18T16:24:43.825Z,100603.78
2017-05-18T16:27:11.340Z,100596.86
2017-05-18T16:29:38.927Z,100597.52
2017-05-18T16:32:06.453Z,100598.36
2017-05-18T16:34:33.977Z,100591.02
2017-05-18T16:37:01.517Z,100588.59
2017-05-18T16:39:29.073Z,100589.18
2017-05-18T16:41:56.721Z,100586.66
2017-05-18T16:44:24.238Z,100586.31
2017-05-18T16:46:51.780Z,100594.13
2017-05-18T16:49:19.375Z,100593.70
2017-05-18T16:51:46.909Z,100588.78
2017-05-18T16:54:14.482Z,100589.98
2017-05-18T16:56:42.053Z,100587.27
2017-05-18T16:59:09.592Z,100586.98
2017-05-18T17:01:37.131Z,100584.95
2017-05-18T17:04:04.663Z,100587.44
2017-05-18T17:06:32.651Z,100586.77
2017-05-18T17:09:00.176Z,100584.77
2017-05-18T17:11:27.737Z,100585.09
2017-05-18T17:13:55.723Z,100584.20
2017-05-18T17:16:23.248Z,100581.05
2017-05-18T17:18:51.307Z,100576.34
2017-05-18T17:21:18.860Z,100576.13
2017-05-18T17:23:46.415Z,100569.80
2017-05-18T17:26:14.011Z,100576.57
2017-05-18T17:28:41.545Z,100565.67
2017-05-18T17:31:09.140Z,100559.53
2017-05-18T17:33:36.721Z,100558.31
2017-05-18T17:36:04.271Z,100555.71
2017-05-18T17:38:32.005Z,100552.72
2017-05-18T17:40:59.551Z,100551.83
2017-05-18T17:43:27.098Z,100548.27
2017-05-18T17:45:54.908Z,100539.10
2017-05-18T17:48:22.451Z,100538.56
2017-05-18T17:50:50.016Z,100532.23
2017-05-18T17:53:17.569Z,100520.77
2017-05-18T17:55:45.100Z,100520.62
2017-05-18T17:58:13.117Z,100516.71
2017-05-18T18:00:40.627Z,100518.66
2017-05-18T18:03:08.211Z,100508.15
2017-05-18T18:05:35.758Z,100506.92
2017-05-18T18:08:03.314Z,100509.83
2017-05-18T18:10:30.919Z,100509.91
2017-05-18T18:12:58.453Z,100509.50
2017-05-18T18:15:26.300Z,100499.44
2017-05-18T18:17:53.845Z,100489.88
2017-05-18T18:20:21.380Z,100486.59
2017-05-18T18:22:48.945Z,100485.08
2017-05-18T18:25:16.496Z,100490.52
2017-05-18T18:27:44.441Z,100481.84
2017-05-18T18:30:11.975Z,100482.48
2017-05-18T18:32:39.497Z,100479.48
2017-05-18T18:35:07.048Z,100484.74
2017-05-18T18:37:34.578Z,100485.91
2017-05-18T18:40:02.154Z,100488.88
2017-05-18T18:42:29.677Z,100485.88
2017-05-18T18:44:57.267Z,100491.09
2017-05-18T18:47:24.812Z,100486.73
2017-05-18T18:49:52.335Z,100485.59
2017-05-18T18:52:20.143Z,100488.11
2017-05-18T18:54:47.661Z,100488.05
2017-05-18T18:57:15.174Z,100486.48
2017-05-18T18:59:42.708Z,100481.84
2017-05-18T19:02:10.258Z,100484.25
2017-05-18T19:04:37.830Z,100482.41
2017-05-18T19:07:05.373Z,100479.28
2017-05-18T19:09:33.199Z,100482.27
2017-05-18T19:12:00.737Z,100475.97
2017-05-18T19:14:28.264Z,100480.21
2017-05-18T19:16:55.836Z,100476.58
2017-05-18T19:19:23.420Z,100482.52
2017-05-18T19:21:50.952Z,100485.08
2017-05-18T19:24:18.540Z,100488.28
2017-05-18T19:26:46.084Z,100483.86
2017-05-18T19:29:13.702Z,100484.89
2017-05-18T19:31:41.223Z,100478.77
2017-05-18T19:34:08.797Z,100483.34
2017-05-18T19:36:36.392Z,100482.08
2017-05-18T19:39:03.941Z,100472.03
2017-05-18T19:41:31.488Z,100472.28
2017-05-18T19:43:59.124Z,100471.78
2017-05-18T19:46:26.683Z,100476.70
2017-05-18T19:48:54.283Z,100478.21
2017-05-18T19:51:21.829Z,100479.67
2017-05-18T19:53:49.364Z,100475.92
2017-05-18T19:56:16.972Z,100474.03
2017-05-18T19:58:44.599Z,100473.21
2017-05-18T20:01:12.467Z,100471.59
2017-05-18T20:03:40.014Z,100473.47
2017-05-18T20:06:07.548Z,100478.23
2017-05-18T20:08:35.119Z,100468.38
2017-05-18T20:11:02.657Z,100471.01
2017-05-18T20:13:30.216Z,100463.13
2017-05-18T20:15:57.784Z,100467.38
2017-05-18T20:18:25.335Z,100455.14
2017-05-18T20:20:53.231Z,100450.13
2017-05-18T20:23:20.759Z,100454.91
2017-05-18T20:25:48.289Z,100453.34
2017-05-18T20:28:16.139Z,100448.70
2017-05-18T20:30:43.672Z,100444.19
2017-05-18T20:33:11.202Z,100435.91
2017-05-18T20:35:39.167Z,100436.69
2017-05-18T20:38:06.711Z,100439.81
2017-05-18T20:40:34.248Z,100438.45
2017-05-18T20:43:01.830Z,100439.81
2017-05-18T20:45:29.413Z,100439.56
2017-05-18T20:47:57.064Z,100432.44
2017-05-18T20:50:24.675Z,100438.66
2017-05-18T20:52:52.263Z,100436.23
2017-05-18T20:55:19.827Z,100431.23
2017-05-18T20:57:47.348Z,100423.79
2017-05-18T21:00:14.912Z,100423.09
2017-05-18T21:02:42.522Z,100413.58
2017-05-18T21:05:10.079Z,100419.19
2017-05-18T21:07:37.639Z,100425.28
2017-05-18T21:10:05.261Z,100421.29
2017-05-18T21:12:32.800Z,100426.97
2017-05-18T21:15:00.406Z,100418.58
2017-05-18T21:17:27.939Z,100417.13
2017-05-18T21:19:55.459Z,100414.98
2017-05-18T21:22:23.015Z,100412.03
2017-05-18T21:24:50.531Z,100408.20
2017-05-18T21:27:18.084Z,100402.16
2017-05-18T21:29:45.606Z,100403.11
2017-05-18T21:32:13.187Z,100393.84
2017-05-18T21:34:40.709Z,100399.16
2017-05-18T21:37:08.231Z,100399.48
2017-05-18T21:39:35.813Z,100397.36
2017-05-18T21:42:03.324Z,100399.98
2017-05-18T21:44:30.878Z,100393.70
2017-05-18T21:46:58.394Z,100403.74
2017-05-18T21:49:26.187Z,100403.91
2017-05-18T21:51:53.740Z,100403.42
2017-05-18T21:54:21.256Z,100398.07
2017-05-18T21:56:48.886Z,100399.02
2017-05-18T21:59:16.432Z,100398.55
2017-05-18T22:01:44.076Z,100384.20
2017-05-18T22:04:11.613Z,100387.55
2017-05-18T22:06:39.427Z,100387.95
2017-05-18T22:09:06.943Z,100392.98
2017-05-18T22:11:34.455Z,100386.81
2017-05-18T22:14:01.998Z,100379.42
2017-05-18T22:16:29.504Z,100378.12
2017-05-18T22:18:57.045Z,100373.88
2017-05-18T22:21:24.556Z,100371.12
2017-05-18T22:23:52.096Z,100360.19
2017-05-18T22:26:19.599Z,100357.84
2017-05-18T22:28:47.424Z,100358.72
2017-05-18T22:31:14.940Z,100354.42
2017-05-18T22:33:42.471Z,100344.14
2017-05-18T22:36:10.325Z,100345.34
2017-05-18T22:38:37.869Z,100333.19
2017-05-18T22:41:05.401Z,100335.11
2017-05-18T22:43:32.984Z,100329.78
2017-05-18T22:46:00.491Z,100333.59
2017-05-18T22:48:28.372Z,100323.83
2017-05-18T22:50:55.896Z,100319.84
2017-05-18T22:53:23.432Z,100315.07
2017-05-18T22:55:50.977Z,100316.92
2017-05-18T22:58:18.497Z,100310.96
2017-05-18T23:00:46.315Z,100309.01
2017-05-18T23:03:13.866Z,100301.86
2017-05-18T23:05:41.392Z,100294.09
2017-05-18T23:08:08.943Z,100296.56
2017-05-18T23:10:36.775Z,100303.59
2017-05-18T23:13:04.287Z,100299.13
2017-05-18T23:15:31.811Z,100296.33
2017-05-18T23:17:59.371Z,100295.46
2017-05-18T23:20:26.943Z,100290.98
2017-05-18T23:22:54.604Z,100295.92
2017-05-18T23:25:22.190Z,100294.39
2017-05-18T23:27:49.767Z,100298.78
2017-05-18T23:30:17.308Z,100295.76
2017-05-18T23:32:44.890Z,100295.75
2017-05-18T23:35:12.704Z,100293.45
2017-05-18T23:37:40.247Z,100289.53
2017-05-18T23:40:07.763Z,100286.98
2017-05-18T23:42:35.329Z,100289.55
2017-05-18T23:45:02.826Z,100286.27
2017-05-18T23:47:30.383Z,100284.44
2017-05-18T23:49:57.904Z,100286.92
2017-05-18T23:52:25.419Z,100283.57
2017-05-18T23:54:52.964Z,100287.23
2017-05-18T23:57:20.490Z,100287.87
2017-05-18T23:59:48.029Z,100288.91
